createdAt,value
2022-08-31T00:02:39.901Z,91.28
2022-08-31T00:05:06.855Z,91.41
2022-08-31T00:07:35.074Z,91.49
2022-08-31T00:10:14.290Z,91.19
2022-08-31T00:12:46.661Z,91.27
2022-08-31T00:15:19.490Z,91.12
2022-08-31T00:17:49.981Z,91.16
2022-08-31T00:20:33.969Z,90.95
2022-08-31T00:23:04.437Z,90.69
2022-08-31T00:25:31.587Z,90.29
2022-08-31T00:27:58.120Z,90.21
2022-08-31T00:30:24.959Z,90.39
2022-08-31T00:32:51.648Z,90.38
2022-08-31T00:35:18.983Z,90.51
2022-08-31T00:37:45.564Z,90.55
2022-08-31T00:40:12.478Z,90.77
2022-08-31T00:42:39.344Z,90.86
2022-08-31T00:45:07.144Z,90.76
2022-08-31T00:47:33.739Z,90.57
2022-08-31T00:50:01.033Z,91.57
2022-08-31T00:52:33.333Z,91.14
2022-08-31T00:55:21.481Z,91.11
2022-08-31T00:57:51.351Z,90.68
2022-08-31T01:00:21.979Z,90.76
2022-08-31T01:02:49.004Z,90.99
2022-08-31T01:05:16.869Z,91.02
2022-08-31T01:07:47.717Z,90.97
2022-08-31T01:10:17.116Z,90.98
2022-08-31T01:12:45.961Z,91.20
2022-08-31T01:15:15.558Z,91.34
2022-08-31T01:17:44.107Z,91.64
2022-08-31T01:20:31.643Z,91.79
2022-08-31T01:23:08.940Z,91.44
2022-08-31T01:25:38.393Z,91.31
2022-08-31T01:28:07.869Z,91.88
2022-08-31T01:30:36.004Z,91.87
2022-08-31T01:33:03.075Z,91.77
2022-08-31T01:35:30.101Z,91.78
2022-08-31T01:37:56.985Z,91.90
2022-08-31T01:40:45.502Z,92.42
2022-08-31T01:43:12.076Z,92.92
2022-08-31T01:45:38.870Z,93.53
2022-08-31T01:48:05.436Z,94.09
2022-08-31T01:50:32.046Z,94.55
2022-08-31T01:52:58.651Z,94.11
2022-08-31T01:55:25.228Z,93.90
2022-08-31T01:57:51.948Z,93.76
2022-08-31T02:00:18.526Z,93.60
2022-08-31T02:02:45.123Z,93.58
2022-08-31T02:05:14.426Z,93.75
2022-08-31T02:07:41.572Z,93.95
2022-08-31T02:10:08.606Z,94.01
2022-08-31T02:12:35.352Z,94.54
2022-08-31T02:15:01.904Z,94.93
2022-08-31T02:17:28.508Z,94.74
2022-08-31T02:19:55.230Z,94.77
2022-08-31T02:22:21.934Z,94.67
2022-08-31T02:24:48.505Z,94.53
2022-08-31T02:27:15.048Z,94.27
2022-08-31T02:29:41.613Z,94.38
2022-08-31T02:32:08.254Z,94.85
2022-08-31T02:34:46.179Z,94.97
2022-08-31T02:37:12.755Z,94.70
2022-08-31T02:39:39.915Z,94.72
2022-08-31T02:42:07.248Z,94.50
2022-08-31T02:44:34.862Z,94.62
2022-08-31T02:47:01.421Z,94.11
2022-08-31T02:49:27.994Z,93.92
2022-08-31T02:51:54.571Z,94.08
2022-08-31T02:54:21.118Z,94.21
2022-08-31T02:56:47.721Z,94.13
2022-08-31T02:59:14.269Z,95.13
2022-08-31T03:01:40.979Z,95.65
2022-08-31T03:04:07.972Z,96.03
2022-08-31T03:06:34.713Z,95.99
2022-08-31T03:09:01.309Z,95.44
2022-08-31T03:11:28.461Z,94.87
2022-08-31T03:13:58.476Z,94.92
2022-08-31T03:16:26.038Z,94.75
2022-08-31T03:18:52.678Z,95.11
2022-08-31T03:21:19.208Z,94.98
2022-08-31T03:23:46.175Z,95.09
2022-08-31T03:26:12.816Z,94.67
2022-08-31T03:28:39.442Z,94.55
2022-08-31T03:31:10.594Z,94.25
2022-08-31T03:33:37.548Z,94.31
2022-08-31T03:36:05.786Z,94.31
2022-08-31T03:38:32.591Z,94.33
2022-08-31T03:40:59.534Z,94.81
2022-08-31T03:43:26.090Z,94.54
2022-08-31T03:45:53.951Z,94.72
2022-08-31T03:48:20.533Z,94.61
2022-08-31T03:50:47.407Z,94.72
2022-08-31T03:53:14.560Z,94.72
2022-08-31T03:55:42.529Z,94.93
2022-08-31T03:58:10.316Z,95.55
2022-08-31T04:00:39.432Z,96.03
2022-08-31T04:03:05.939Z,95.78
2022-08-31T04:05:36.475Z,95.23
2022-08-31T04:08:03.268Z,95.38
2022-08-31T04:10:29.849Z,95.37
2022-08-31T04:12:56.446Z,95.82
2022-08-31T04:15:23.272Z,96.03
2022-08-31T04:17:52.183Z,95.64
2022-08-31T04:20:29.497Z,95.66
2022-08-31T04:22:56.623Z,95.63
2022-08-31T04:25:23.143Z,95.64
2022-08-31T04:27:50.387Z,96.26
2022-08-31T04:30:17.936Z,96.97
2022-08-31T04:32:44.520Z,97.36
2022-08-31T04:35:11.291Z,97.43
2022-08-31T04:37:40.538Z,97.97
2022-08-31T04:40:18.960Z,97.85
2022-08-31T04:42:47.299Z,98.24
2022-08-31T04:45:15.091Z,98.15
2022-08-31T04:47:42.898Z,97.75
2022-08-31T04:50:11.311Z,97.51
2022-08-31T04:52:38.215Z,97.49
2022-08-31T04:55:05.782Z,97.57
2022-08-31T04:57:35.489Z,97.57
2022-08-31T05:00:04.137Z,97.91
2022-08-31T05:02:33.340Z,98.08
2022-08-31T05:05:01.141Z,98.14
2022-08-31T05:07:27.982Z,98.61
2022-08-31T05:09:54.815Z,98.81
2022-08-31T05:12:21.453Z,98.67
2022-08-31T05:14:47.960Z,98.56
2022-08-31T05:17:16.732Z,98.55
2022-08-31T05:19:43.940Z,98.50
2022-08-31T05:22:11.109Z,98.48
2022-08-31T05:24:38.976Z,98.29
2022-08-31T05:27:06.511Z,98.48
2022-08-31T05:29:33.122Z,98.79
2022-08-31T05:31:59.672Z,98.61
2022-08-31T05:34:26.931Z,98.28
2022-08-31T05:36:55.995Z,98.45
2022-08-31T05:39:23.010Z,98.16
2022-08-31T05:41:49.655Z,97.79
2022-08-31T05:44:17.512Z,97.58
2022-08-31T05:46:45.009Z,97.68
2022-08-31T05:49:21.284Z,97.00
2022-08-31T05:51:47.821Z,96.55
2022-08-31T05:54:16.019Z,96.31
2022-08-31T05:56:42.973Z,95.97
2022-08-31T05:59:10.266Z,95.89
2022-08-31T06:01:39.881Z,95.33
2022-08-31T06:04:07.815Z,95.17
2022-08-31T06:06:35.239Z,94.98
2022-08-31T06:09:01.979Z,94.57
2022-08-31T06:11:30.297Z,94.84
2022-08-31T06:13:59.688Z,94.61
2022-08-31T06:16:27.052Z,93.86
2022-08-31T06:18:55.707Z,93.26
2022-08-31T06:21:30.139Z,93.50
2022-08-31T06:23:58.181Z,93.15
2022-08-31T06:26:27.362Z,93.27
2022-08-31T06:28:55.006Z,93.13
2022-08-31T06:31:27.852Z,92.38
2022-08-31T06:33:56.012Z,92.00
2022-08-31T06:36:25.667Z,91.29
2022-08-31T06:38:54.211Z,90.83
2022-08-31T06:41:27.567Z,90.82
2022-08-31T06:43:54.582Z,90.25
2022-08-31T06:46:22.956Z,90.43
2022-08-31T06:48:53.009Z,90.26
2022-08-31T06:51:19.599Z,90.64
2022-08-31T06:53:46.464Z,90.61
2022-08-31T06:56:21.084Z,89.93
2022-08-31T06:58:53.883Z,90.30
2022-08-31T07:01:35.012Z,90.58
2022-08-31T07:04:07.936Z,89.78
2022-08-31T07:06:44.098Z,89.25
2022-08-31T07:09:16.030Z,89.13
2022-08-31T07:11:47.961Z,89.26
2022-08-31T07:14:17.794Z,88.88
2022-08-31T07:16:46.203Z,88.59
2022-08-31T07:19:13.842Z,88.24
2022-08-31T07:21:43.813Z,87.96
2022-08-31T07:24:13.246Z,88.52
2022-08-31T07:26:46.473Z,89.02
2022-08-31T07:29:15.862Z,88.74
2022-08-31T07:31:52.475Z,88.64
2022-08-31T07:34:28.553Z,86.87
2022-08-31T07:37:16.746Z,86.66
2022-08-31T07:40:07.170Z,86.38
2022-08-31T07:42:43.301Z,86.26
2022-08-31T07:45:22.500Z,86.41
2022-08-31T07:47:55.282Z,86.25
2022-08-31T07:50:22.978Z,86.05
2022-08-31T07:52:54.524Z,85.61
2022-08-31T07:55:25.980Z,84.29
2022-08-31T07:57:55.113Z,83.80
2022-08-31T08:00:25.892Z,85.25
2022-08-31T08:02:53.988Z,84.25
2022-08-31T08:05:27.575Z,83.44
2022-08-31T08:07:58.761Z,81.67
2022-08-31T08:10:27.011Z,81.26
2022-08-31T08:13:05.403Z,82.13
2022-08-31T08:15:35.773Z,81.69
2022-08-31T08:18:03.469Z,81.23
2022-08-31T08:20:37.900Z,81.04
2022-08-31T08:23:13.634Z,80.14
2022-08-31T08:25:45.165Z,80.28
2022-08-31T08:31:05.722Z,79.33
2022-08-31T08:33:34.519Z,78.61
2022-08-31T08:36:07.503Z,78.82
2022-08-31T08:38:36.163Z,78.02
2022-08-31T08:41:07.515Z,78.14
2022-08-31T08:43:38.907Z,78.23
2022-08-31T08:46:25.551Z,77.87
2022-08-31T08:48:59.448Z,78.24
2022-08-31T08:51:36.112Z,77.84
2022-08-31T08:54:10.806Z,77.49
2022-08-31T08:56:42.106Z,74.83
2022-08-31T08:59:15.798Z,75.67
2022-08-31T09:01:48.971Z,75.15
2022-08-31T09:04:39.946Z,74.68
2022-08-31T09:07:33.643Z,75.32
2022-08-31T09:10:09.052Z,75.09
2022-08-31T09:12:58.186Z,75.44
2022-08-31T09:15:49.406Z,73.65
2022-08-31T09:18:34.448Z,73.39
2022-08-31T09:21:06.222Z,73.71
2022-08-31T09:23:37.511Z,74.38
2022-08-31T09:26:08.156Z,73.86
2022-08-31T09:28:44.849Z,74.10
2022-08-31T09:31:34.645Z,73.95
2022-08-31T09:34:02.365Z,73.45
2022-08-31T09:36:38.835Z,73.34
2022-08-31T09:39:24.911Z,74.35
2022-08-31T09:41:58.047Z,73.81
2022-08-31T09:44:29.166Z,73.54
2022-08-31T09:46:58.274Z,73.58
2022-08-31T09:49:38.982Z,72.73
2022-08-31T09:52:45.195Z,71.98
2022-08-31T09:55:18.434Z,72.04
2022-08-31T09:57:57.640Z,71.93
2022-08-31T10:00:41.314Z,72.17
2022-08-31T10:03:26.022Z,71.94
2022-08-31T10:05:54.652Z,72.55
2022-08-31T10:08:42.319Z,72.08
2022-08-31T10:11:13.795Z,72.56
2022-08-31T10:13:45.967Z,73.39
2022-08-31T10:16:41.715Z,72.10
2022-08-31T10:19:20.394Z,72.41
2022-08-31T10:21:56.352Z,72.46
2022-08-31T10:24:46.386Z,71.84
2022-08-31T10:27:23.986Z,71.88
2022-08-31T10:30:27.543Z,71.75
2022-08-31T10:33:08.657Z,72.37
2022-08-31T10:35:42.554Z,73.04
2022-08-31T10:38:14.771Z,71.60
2022-08-31T10:40:51.582Z,72.21
2022-08-31T10:43:26.866Z,72.14
2022-08-31T10:45:58.311Z,73.81
2022-08-31T10:48:26.403Z,74.46
2022-08-31T10:51:05.885Z,74.45
2022-08-31T10:53:52.353Z,75.00
2022-08-31T10:56:29.126Z,76.05
2022-08-31T10:59:10.835Z,77.21
2022-08-31T11:02:14.717Z,78.27
2022-08-31T11:05:12.601Z,78.85
2022-08-31T11:07:39.086Z,79.08
2022-08-31T11:10:20.653Z,79.36
2022-08-31T11:12:55.114Z,80.13
2022-08-31T11:15:55.244Z,80.49
2022-08-31T11:18:40.030Z,81.15
2022-08-31T11:21:20.220Z,81.52
2022-08-31T11:23:55.460Z,81.78
2022-08-31T11:26:31.895Z,81.30
2022-08-31T11:29:13.377Z,81.12
2022-08-31T11:31:41.017Z,81.39
2022-08-31T11:34:16.304Z,81.80
2022-08-31T11:36:48.082Z,81.33
2022-08-31T11:39:17.424Z,80.71
2022-08-31T11:41:49.405Z,80.06
2022-08-31T11:44:32.994Z,80.07
2022-08-31T11:47:27.912Z,79.53
2022-08-31T11:50:02.463Z,78.55
2022-08-31T11:52:43.962Z,77.58
2022-08-31T11:55:14.995Z,78.20
2022-08-31T11:58:07.555Z,77.79
2022-08-31T12:00:52.204Z,76.14
2022-08-31T12:04:06.447Z,75.31
2022-08-31T12:06:37.275Z,75.84
2022-08-31T12:09:18.800Z,74.56
2022-08-31T12:12:07.555Z,72.46
2022-08-31T12:15:04.921Z,72.10
2022-08-31T12:18:07.928Z,72.87
2022-08-31T12:21:14.577Z,73.08
2022-08-31T12:24:09.345Z,72.44
2022-08-31T12:26:50.638Z,71.55
2022-08-31T12:29:33.698Z,71.55
2022-08-31T12:32:11.674Z,71.48
2022-08-31T12:34:47.895Z,71.21
2022-08-31T12:37:35.249Z,69.15
2022-08-31T12:40:24.312Z,68.38
2022-08-31T12:43:13.837Z,67.35
2022-08-31T12:46:02.160Z,66.64
2022-08-31T12:48:34.631Z,67.40
2022-08-31T12:51:04.204Z,66.26
2022-08-31T12:54:02.390Z,65.30
2022-08-31T12:56:38.077Z,65.01
2022-08-31T12:59:19.620Z,64.40
2022-08-31T13:01:49.558Z,64.96
2022-08-31T13:04:18.494Z,63.93
2022-08-31T13:06:48.491Z,63.85
2022-08-31T13:09:30.540Z,63.48
2022-08-31T13:12:00.074Z,62.50
2022-08-31T13:14:39.621Z,63.31
2022-08-31T13:17:18.214Z,62.90
2022-08-31T13:19:47.987Z,62.04
2022-08-31T13:22:17.052Z,61.53
2022-08-31T13:24:53.475Z,61.30
2022-08-31T13:27:27.545Z,59.54
2022-08-31T13:29:57.025Z,60.85
2022-08-31T13:32:23.563Z,58.91
2022-08-31T13:34:50.087Z,58.85
2022-08-31T13:37:30.040Z,58.31
2022-08-31T13:39:57.606Z,57.67
2022-08-31T13:42:36.479Z,57.59
2022-08-31T13:45:07.542Z,58.35
2022-08-31T13:47:48.592Z,57.99
2022-08-31T13:50:25.773Z,57.48
2022-08-31T13:53:24.831Z,56.54
2022-08-31T13:55:43.771Z,56.62
2022-08-31T13:58:26.252Z,57.45
2022-08-31T14:00:58.416Z,56.96
2022-08-31T14:03:51.531Z,57.65
2022-08-31T14:06:29.933Z,56.71
2022-08-31T14:09:07.785Z,56.68
2022-08-31T14:11:35.687Z,57.17
2022-08-31T14:14:08.559Z,57.54
2022-08-31T14:16:38.586Z,57.68
2022-08-31T14:19:05.965Z,57.78
2022-08-31T14:21:35.170Z,58.27
2022-08-31T14:24:09.088Z,58.20
2022-08-31T14:26:41.450Z,58.67
2022-08-31T14:29:16.430Z,59.05
2022-08-31T14:31:57.974Z,59.25
2022-08-31T14:34:48.088Z,59.23
2022-08-31T14:37:23.123Z,59.91
2022-08-31T14:39:53.829Z,59.44
2022-08-31T14:42:27.324Z,59.20
2022-08-31T14:45:03.203Z,59.61
2022-08-31T14:47:36.253Z,60.19
2022-08-31T14:50:07.479Z,60.41
2022-08-31T14:52:44.435Z,60.63
2022-08-31T14:55:12.537Z,60.75
2022-08-31T14:57:45.751Z,60.46
2022-08-31T15:00:21.939Z,60.56
2022-08-31T15:02:49.762Z,60.89
2022-08-31T15:05:18.097Z,60.88
2022-08-31T15:07:46.968Z,61.43
2022-08-31T15:10:13.552Z,61.50
2022-08-31T15:12:40.505Z,62.07
2022-08-31T15:15:07.692Z,62.19
2022-08-31T15:17:36.117Z,62.57
2022-08-31T15:20:06.077Z,62.73
2022-08-31T15:22:35.208Z,63.29
2022-08-31T15:25:01.827Z,62.93
2022-08-31T15:27:31.855Z,63.30
2022-08-31T15:30:08.130Z,63.97
2022-08-31T15:32:43.249Z,64.17
2022-08-31T15:35:14.223Z,64.77
2022-08-31T15:37:41.339Z,64.60
2022-08-31T15:40:10.249Z,64.94
2022-08-31T15:42:39.947Z,65.30
2022-08-31T15:45:06.925Z,65.42
2022-08-31T15:47:57.119Z,65.20
2022-08-31T15:50:27.052Z,65.15
2022-08-31T15:53:09.538Z,65.55
2022-08-31T15:55:40.660Z,66.65
2022-08-31T15:58:09.396Z,67.19
2022-08-31T16:00:37.402Z,67.40
2022-08-31T16:03:06.122Z,67.76
2022-08-31T16:05:35.746Z,68.36
2022-08-31T16:08:02.960Z,68.93
2022-08-31T16:10:31.071Z,69.40
2022-08-31T16:12:57.955Z,70.18
2022-08-31T16:15:25.132Z,69.83
2022-08-31T16:17:55.882Z,69.59
2022-08-31T16:20:23.353Z,69.61
2022-08-31T16:22:49.917Z,69.16
2022-08-31T16:25:17.676Z,69.47
2022-08-31T16:27:47.122Z,69.96
2022-08-31T16:30:14.802Z,70.40
2022-08-31T16:32:41.356Z,70.64
2022-08-31T16:35:08.430Z,71.01
2022-08-31T16:37:35.068Z,71.65
2022-08-31T16:40:02.729Z,72.03
2022-08-31T16:42:29.473Z,72.44
2022-08-31T16:45:01.244Z,72.72
2022-08-31T16:47:29.252Z,73.11
2022-08-31T16:49:56.389Z,73.16
2022-08-31T16:52:28.097Z,73.20
2022-08-31T16:54:57.379Z,73.84
2022-08-31T16:57:28.352Z,74.27
2022-08-31T16:59:56.955Z,74.65
2022-08-31T17:02:27.559Z,74.89
2022-08-31T17:04:56.499Z,74.36
2022-08-31T17:07:24.893Z,74.42
2022-08-31T17:09:56.597Z,74.40
2022-08-31T17:12:26.098Z,74.58
2022-08-31T17:14:53.205Z,74.52
2022-08-31T17:17:25.230Z,74.76
2022-08-31T17:19:53.199Z,74.63
2022-08-31T17:22:30.050Z,74.79
2022-08-31T17:25:04.745Z,74.82
2022-08-31T17:27:33.447Z,74.91
2022-08-31T17:30:01.120Z,74.86
2022-08-31T17:32:28.601Z,75.23
2022-08-31T17:34:55.949Z,75.49
2022-08-31T17:37:32.749Z,75.39
2022-08-31T17:40:00.215Z,75.47
2022-08-31T17:42:28.065Z,75.57
2022-08-31T17:44:56.523Z,75.89
2022-08-31T17:47:25.192Z,76.24
2022-08-31T17:49:52.781Z,76.21
2022-08-31T17:52:21.711Z,76.44
2022-08-31T17:54:50.969Z,76.52
2022-08-31T17:57:22.278Z,76.58
2022-08-31T17:59:49.185Z,76.96
2022-08-31T18:02:21.121Z,77.26
2022-08-31T18:04:48.933Z,77.34
2022-08-31T18:07:16.038Z,77.85
2022-08-31T18:09:45.489Z,77.92
2022-08-31T18:12:13.718Z,77.96
2022-08-31T18:14:41.573Z,78.36
2022-08-31T18:17:10.786Z,78.59
2022-08-31T18:19:38.207Z,78.47
2022-08-31T18:22:05.177Z,78.67
2022-08-31T18:24:35.534Z,78.55
2022-08-31T18:27:04.380Z,78.87
2022-08-31T18:29:34.547Z,78.98
2022-08-31T18:32:05.874Z,79.35
2022-08-31T18:34:35.349Z,79.51
2022-08-31T18:37:02.457Z,79.53
2022-08-31T18:39:51.600Z,79.67
2022-08-31T18:42:38.068Z,79.89
2022-08-31T18:45:20.698Z,79.86
2022-08-31T18:48:21.003Z,80.00
2022-08-31T18:50:42.365Z,79.59
2022-08-31T18:53:11.101Z,79.74
2022-08-31T18:55:42.496Z,79.68
2022-08-31T18:58:09.115Z,79.83
2022-08-31T19:00:35.822Z,79.76
2022-08-31T19:03:03.079Z,80.30
2022-08-31T19:05:31.497Z,80.42
2022-08-31T19:08:00.356Z,80.56
2022-08-31T19:10:27.276Z,80.64
2022-08-31T19:12:57.172Z,80.81
2022-08-31T19:15:33.618Z,80.87
2022-08-31T19:18:03.107Z,81.49
2022-08-31T19:20:30.408Z,81.53
2022-08-31T19:22:57.561Z,81.54
2022-08-31T19:25:24.578Z,81.71
2022-08-31T19:27:53.655Z,81.81
2022-08-31T19:30:24.366Z,81.89
2022-08-31T19:32:53.703Z,82.43
2022-08-31T19:35:20.336Z,82.87
2022-08-31T19:37:47.384Z,82.89
2022-08-31T19:40:17.965Z,82.83
2022-08-31T19:43:41.478Z,82.58
2022-08-31T19:45:42.888Z,82.32
2022-08-31T19:48:11.692Z,82.33
2022-08-31T19:50:42.672Z,82.41
2022-08-31T19:53:14.077Z,82.60
2022-08-31T19:55:50.336Z,82.81
2022-08-31T19:58:19.623Z,82.78
2022-08-31T20:00:48.380Z,82.41
2022-08-31T20:03:15.982Z,82.46
2022-08-31T20:05:43.578Z,82.48
2022-08-31T20:08:11.843Z,82.73
2022-08-31T20:10:44.083Z,82.86
2022-08-31T20:13:12.616Z,82.71
2022-08-31T20:15:41.018Z,82.43
2022-08-31T20:18:11.313Z,82.48
2022-08-31T20:20:40.981Z,82.01
2022-08-31T20:23:07.936Z,82.01
2022-08-31T20:25:39.935Z,82.07
2022-08-31T20:28:07.269Z,82.44
2022-08-31T20:30:39.078Z,82.60
2022-08-31T20:33:07.786Z,82.62
2022-08-31T20:35:37.038Z,82.36
2022-08-31T20:38:03.652Z,82.53
2022-08-31T20:40:30.385Z,82.36
2022-08-31T20:42:56.953Z,82.67
2022-08-31T20:45:23.569Z,82.93
2022-08-31T20:48:08.779Z,83.08
2022-08-31T20:50:35.810Z,83.30
2022-08-31T20:53:03.105Z,83.30
2022-08-31T20:55:29.710Z,82.81
2022-08-31T20:57:56.403Z,82.87
2022-08-31T21:00:24.768Z,83.02
2022-08-31T21:02:51.550Z,83.18
2022-08-31T21:08:05.616Z,83.07
2022-08-31T21:10:37.566Z,82.84
2022-08-31T21:13:07.176Z,82.60
2022-08-31T21:15:33.768Z,82.43
2022-08-31T21:18:00.463Z,82.61
2022-08-31T21:20:27.032Z,83.00
2022-08-31T21:22:53.773Z,83.21
2022-08-31T21:25:20.324Z,82.63
2022-08-31T21:27:47.085Z,82.37
2022-08-31T21:30:13.876Z,82.65
2022-08-31T21:32:40.730Z,82.87
2022-08-31T21:35:12.239Z,82.83
2022-08-31T21:37:38.897Z,82.99
2022-08-31T21:40:06.265Z,83.12
2022-08-31T21:42:33.621Z,83.20
2022-08-31T21:45:00.166Z,83.14
2022-08-31T21:47:28.601Z,83.46
2022-08-31T21:49:55.229Z,83.49
2022-08-31T21:52:22.283Z,83.41
2022-08-31T21:54:48.865Z,83.70
2022-08-31T21:57:16.047Z,83.60
2022-08-31T21:59:42.664Z,83.42
2022-08-31T22:02:11.495Z,83.25
2022-08-31T22:04:41.268Z,82.85
2022-08-31T22:07:08.430Z,82.62
2022-08-31T22:09:36.519Z,82.88
2022-08-31T22:12:06.786Z,83.19
2022-08-31T22:14:37.571Z,83.55
2022-08-31T22:17:06.924Z,83.48
2022-08-31T22:19:36.851Z,83.57
2022-08-31T22:22:07.980Z,83.32
2022-08-31T22:24:36.033Z,83.43
2022-08-31T22:27:08.441Z,83.62
2022-08-31T22:29:36.494Z,83.46
2022-08-31T22:32:12.050Z,83.44
2022-08-31T22:34:39.595Z,83.43
2022-08-31T22:37:06.581Z,83.58
2022-08-31T22:39:33.638Z,84.05
2022-08-31T22:42:01.585Z,84.10
2022-08-31T22:44:34.227Z,84.20
2022-08-31T22:47:01.571Z,83.83
2022-08-31T22:49:28.164Z,83.83
2022-08-31T22:51:54.974Z,84.12
2022-08-31T22:54:22.780Z,84.05
2022-08-31T22:56:49.739Z,84.22
2022-08-31T22:59:24.689Z,84.06
2022-08-31T23:01:54.947Z,84.16
2022-08-31T23:04:25.083Z,84.17
2022-08-31T23:06:52.713Z,83.92
2022-08-31T23:09:21.269Z,83.84
2022-08-31T23:11:49.107Z,83.88
2022-08-31T23:14:15.689Z,83.96
2022-08-31T23:16:50.849Z,84.12
2022-08-31T23:19:20.501Z,84.08
2022-08-31T23:21:56.517Z,84.13
2022-08-31T23:24:31.391Z,84.08
2022-08-31T23:27:04.209Z,83.68
2022-08-31T23:29:40.144Z,83.75
2022-08-31T23:32:11.182Z,83.86
2022-08-31T23:34:38.756Z,83.74
2022-08-31T23:37:08.705Z,83.85
2022-08-31T23:39:37.706Z,83.82
2022-08-31T23:42:04.899Z,83.79
2022-08-31T23:44:31.525Z,83.92
2022-08-31T23:46:59.343Z,83.95
2022-08-31T23:49:26.156Z,84.00
2022-08-31T23:51:52.847Z,84.61
2022-08-31T23:54:20.914Z,84.66
2022-08-31T23:56:48.397Z,84.54
2022-08-31T23:59:19.805Z,84.09
